sensor_id;sensor_type;location;lat;lon;timestamp;temperature;humidity
12049;DHT22;6085;49.452;8.502;2023-07-31T00:02:22;19.20;99.90
12049;DHT22;6085;49.452;8.502;2023-07-31T00:06:24;19.20;99.90
12049;DHT22;6085;49.452;8.502;2023-07-31T00:10:26;19.20;99.90
12049;DHT22;6085;49.452;8.502;2023-07-31T00:14:28;19.10;99.90
12049;DHT22;6085;49.452;8.502;2023-07-31T00:18:32;19.10;99.90
12049;DHT22;6085;49.452;8.502;2023-07-31T00:22:33;19.00;99.90
12049;DHT22;6085;49.452;8.502;2023-07-31T00:26:36;19.00;99.90
12049;DHT22;6085;49.452;8.502;2023-07-31T00:30:38;18.90;99.90
12049;DHT22;6085;49.452;8.502;2023-07-31T00:34:42;18.90;99.90
12049;DHT22;6085;49.452;8.502;2023-07-31T00:38:44;18.80;99.90
12049;DHT22;6085;49.452;8.502;2023-07-31T00:42:46;18.80;99.90
12049;DHT22;6085;49.452;8.502;2023-07-31T00:46:48;18.70;99.90
12049;DHT22;6085;49.452;8.502;2023-07-31T00:50:52;18.70;99.90
12049;DHT22;6085;49.452;8.502;2023-07-31T00:54:54;18.70;99.90
12049;DHT22;6085;49.452;8.502;2023-07-31T00:58:56;18.60;99.90
12049;DHT22;6085;49.452;8.502;2023-07-31T01:02:58;18.50;99.90
12049;DHT22;6085;49.452;8.502;2023-07-31T01:07:09;18.30;99.90
12049;DHT22;6085;49.452;8.502;2023-07-31T01:11:17;18.30;99.90
12049;DHT22;6085;49.452;8.502;2023-07-31T01:15:21;18.20;99.90
12049;DHT22;6085;49.452;8.502;2023-07-31T01:19:24;18.20;99.90
12049;DHT22;6085;49.452;8.502;2023-07-31T01:24:00;18.20;99.90
12049;DHT22;6085;49.452;8.502;2023-07-31T01:28:14;18.20;99.90
12049;DHT22;6085;49.452;8.502;2023-07-31T01:32:18;18.20;99.90
12049;DHT22;6085;49.452;8.502;2023-07-31T01:36:20;18.10;99.90
12049;DHT22;6085;49.452;8.502;2023-07-31T01:40:22;18.10;99.90
12049;DHT22;6085;49.452;8.502;2023-07-31T01:44:26;18.10;99.90
12049;DHT22;6085;49.452;8.502;2023-07-31T01:48:28;18.10;99.90
12049;DHT22;6085;49.452;8.502;2023-07-31T01:52:29;18.00;99.90
12049;DHT22;6085;49.452;8.502;2023-07-31T01:56:31;18.00;99.90
12049;DHT22;6085;49.452;8.502;2023-07-31T02:00:35;18.00;99.90
12049;DHT22;6085;49.452;8.502;2023-07-31T02:04:37;18.00;99.90
12049;DHT22;6085;49.452;8.502;2023-07-31T02:08:40;17.90;99.90
12049;DHT22;6085;49.452;8.502;2023-07-31T02:12:42;17.90;99.90
12049;DHT22;6085;49.452;8.502;2023-07-31T02:16:45;17.90;99.90
12049;DHT22;6085;49.452;8.502;2023-07-31T02:20:49;17.80;99.90
12049;DHT22;6085;49.452;8.502;2023-07-31T02:24:51;17.80;99.90
12049;DHT22;6085;49.452;8.502;2023-07-31T02:28:53;17.80;99.90
12049;DHT22;6085;49.452;8.502;2023-07-31T02:32:56;17.80;99.90
12049;DHT22;6085;49.452;8.502;2023-07-31T02:36:58;17.70;99.90
12049;DHT22;6085;49.452;8.502;2023-07-31T02:41:00;17.80;99.90
12049;DHT22;6085;49.452;8.502;2023-07-31T02:45:03;17.80;99.90
12049;DHT22;6085;49.452;8.502;2023-07-31T02:49:06;17.80;99.90
12049;DHT22;6085;49.452;8.502;2023-07-31T02:53:08;17.70;99.90
12049;DHT22;6085;49.452;8.502;2023-07-31T02:57:10;17.70;99.90
12049;DHT22;6085;49.452;8.502;2023-07-31T03:01:12;17.70;99.90
12049;DHT22;6085;49.452;8.502;2023-07-31T03:05:15;17.60;99.90
12049;DHT22;6085;49.452;8.502;2023-07-31T03:09:17;17.60;99.90
12049;DHT22;6085;49.452;8.502;2023-07-31T03:13:19;17.60;99.90
12049;DHT22;6085;49.452;8.502;2023-07-31T03:17:21;17.60;99.90
12049;DHT22;6085;49.452;8.502;2023-07-31T03:21:24;17.50;99.90
12049;DHT22;6085;49.452;8.502;2023-07-31T03:25:26;17.50;99.90
12049;DHT22;6085;49.452;8.502;2023-07-31T03:29:28;17.40;99.90
12049;DHT22;6085;49.452;8.502;2023-07-31T03:33:30;17.30;99.90
12049;DHT22;6085;49.452;8.502;2023-07-31T03:37:34;17.20;99.90
12049;DHT22;6085;49.452;8.502;2023-07-31T03:41:35;17.20;99.90
12049;DHT22;6085;49.452;8.502;2023-07-31T03:45:37;17.20;99.90
12049;DHT22;6085;49.452;8.502;2023-07-31T03:49:40;17.20;99.90
12049;DHT22;6085;49.452;8.502;2023-07-31T03:53:43;17.20;99.90
12049;DHT22;6085;49.452;8.502;2023-07-31T03:57:45;17.20;99.90
12049;DHT22;6085;49.452;8.502;2023-07-31T04:01:47;17.20;99.90
12049;DHT22;6085;49.452;8.502;2023-07-31T04:05:49;17.20;99.90
12049;DHT22;6085;49.452;8.502;2023-07-31T04:09:52;17.30;99.90
12049;DHT22;6085;49.452;8.502;2023-07-31T04:13:54;17.20;99.90
12049;DHT22;6085;49.452;8.502;2023-07-31T04:17:56;17.20;99.90
12049;DHT22;6085;49.452;8.502;2023-07-31T04:21:58;17.20;99.90
12049;DHT22;6085;49.452;8.502;2023-07-31T04:26:01;17.20;99.90
12049;DHT22;6085;49.452;8.502;2023-07-31T04:30:04;17.30;99.90
12049;DHT22;6085;49.452;8.502;2023-07-31T04:34:07;17.20;99.90
12049;DHT22;6085;49.452;8.502;2023-07-31T04:38:09;17.30;99.90
12049;DHT22;6085;49.452;8.502;2023-07-31T04:42:12;17.30;99.90
12049;DHT22;6085;49.452;8.502;2023-07-31T04:46:14;17.30;99.90
12049;DHT22;6085;49.452;8.502;2023-07-31T04:50:16;17.40;99.90
12049;DHT22;6085;49.452;8.502;2023-07-31T04:54:18;17.50;99.90
12049;DHT22;6085;49.452;8.502;2023-07-31T04:58:22;17.60;99.90
12049;DHT22;6085;49.452;8.502;2023-07-31T05:02:24;17.70;99.90
12049;DHT22;6085;49.452;8.502;2023-07-31T05:06:26;17.80;99.90
12049;DHT22;6085;49.452;8.502;2023-07-31T05:10:28;17.80;99.90
12049;DHT22;6085;49.452;8.502;2023-07-31T05:14:31;17.90;99.90
12049;DHT22;6085;49.452;8.502;2023-07-31T05:18:33;18.00;99.90
12049;DHT22;6085;49.452;8.502;2023-07-31T05:22:35;18.10;99.90
12049;DHT22;6085;49.452;8.502;2023-07-31T05:26:37;18.10;99.90
12049;DHT22;6085;49.452;8.502;2023-07-31T05:30:40;18.00;99.90
12049;DHT22;6085;49.452;8.502;2023-07-31T05:34:43;18.00;99.90
12049;DHT22;6085;49.452;8.502;2023-07-31T05:38:45;18.00;99.90
12049;DHT22;6085;49.452;8.502;2023-07-31T05:42:47;18.10;99.90
12049;DHT22;6085;49.452;8.502;2023-07-31T05:46:50;18.20;99.90
12049;DHT22;6085;49.452;8.502;2023-07-31T05:50:52;18.30;99.90
12049;DHT22;6085;49.452;8.502;2023-07-31T05:54:54;18.50;99.90
12049;DHT22;6085;49.452;8.502;2023-07-31T05:58:56;18.50;99.90
12049;DHT22;6085;49.452;8.502;2023-07-31T06:02:59;18.50;99.90
12049;DHT22;6085;49.452;8.502;2023-07-31T06:07:01;18.60;99.90
12049;DHT22;6085;49.452;8.502;2023-07-31T06:11:03;18.60;99.90
12049;DHT22;6085;49.452;8.502;2023-07-31T06:15:06;18.50;99.90
12049;DHT22;6085;49.452;8.502;2023-07-31T06:19:10;18.70;99.90
12049;DHT22;6085;49.452;8.502;2023-07-31T06:23:13;19.00;99.90
12049;DHT22;6085;49.452;8.502;2023-07-31T06:27:15;19.40;99.90
12049;DHT22;6085;49.452;8.502;2023-07-31T06:31:17;19.60;99.90
12049;DHT22;6085;49.452;8.502;2023-07-31T06:35:24;19.60;99.90
12049;DHT22;6085;49.452;8.502;2023-07-31T06:39:26;19.60;99.90
12049;DHT22;6085;49.452;8.502;2023-07-31T06:43:28;19.80;99.90
12049;DHT22;6085;49.452;8.502;2023-07-31T06:47:30;20.10;99.90
12049;DHT22;6085;49.452;8.502;2023-07-31T06:51:34;20.30;99.90
12049;DHT22;6085;49.452;8.502;2023-07-31T06:55:37;20.30;99.90
12049;DHT22;6085;49.452;8.502;2023-07-31T06:59:39;20.30;99.90
12049;DHT22;6085;49.452;8.502;2023-07-31T07:03:41;20.20;99.90
12049;DHT22;6085;49.452;8.502;2023-07-31T07:07:45;20.20;99.90
12049;DHT22;6085;49.452;8.502;2023-07-31T07:11:47;20.40;99.90
12049;DHT22;6085;49.452;8.502;2023-07-31T07:15:49;20.80;99.90
12049;DHT22;6085;49.452;8.502;2023-07-31T07:19:51;21.40;99.90
12049;DHT22;6085;49.452;8.502;2023-07-31T07:23:54;22.50;99.90
12049;DHT22;6085;49.452;8.502;2023-07-31T07:27:57;23.10;99.90
12049;DHT22;6085;49.452;8.502;2023-07-31T07:31:59;22.70;99.90
12049;DHT22;6085;49.452;8.502;2023-07-31T07:36:01;22.40;99.90
12049;DHT22;6085;49.452;8.502;2023-07-31T07:40:06;22.50;99.90
12049;DHT22;6085;49.452;8.502;2023-07-31T07:44:12;22.60;99.90
12049;DHT22;6085;49.452;8.502;2023-07-31T07:48:14;22.50;99.90
12049;DHT22;6085;49.452;8.502;2023-07-31T07:52:17;22.50;99.90
12049;DHT22;6085;49.452;8.502;2023-07-31T07:56:21;23.60;99.90
12049;DHT22;6085;49.452;8.502;2023-07-31T08:00:23;25.30;99.90
12049;DHT22;6085;49.452;8.502;2023-07-31T08:04:25;26.40;99.90
12049;DHT22;6085;49.452;8.502;2023-07-31T08:08:28;25.70;99.90
12049;DHT22;6085;49.452;8.502;2023-07-31T08:12:32;25.70;99.90
12049;DHT22;6085;49.452;8.502;2023-07-31T08:16:34;25.10;99.90
12049;DHT22;6085;49.452;8.502;2023-07-31T08:20:36;25.10;99.90
12049;DHT22;6085;49.452;8.502;2023-07-31T08:24:37;25.60;99.90
12049;DHT22;6085;49.452;8.502;2023-07-31T08:28:41;26.10;99.90
12049;DHT22;6085;49.452;8.502;2023-07-31T08:32:43;26.20;99.90
12049;DHT22;6085;49.452;8.502;2023-07-31T08:36:45;26.10;99.90
12049;DHT22;6085;49.452;8.502;2023-07-31T08:40:47;26.40;99.90
12049;DHT22;6085;49.452;8.502;2023-07-31T08:44:50;26.60;99.90
12049;DHT22;6085;49.452;8.502;2023-07-31T08:48:53;25.90;99.90
12049;DHT22;6085;49.452;8.502;2023-07-31T08:52:55;24.30;99.90
12049;DHT22;6085;49.452;8.502;2023-07-31T08:56:58;23.50;99.90
12049;DHT22;6085;49.452;8.502;2023-07-31T09:01:04;22.90;99.90
12049;DHT22;6085;49.452;8.502;2023-07-31T09:05:07;22.50;99.90
12049;DHT22;6085;49.452;8.502;2023-07-31T09:09:09;22.40;99.90
12049;DHT22;6085;49.452;8.502;2023-07-31T09:13:12;22.60;99.90
12049;DHT22;6085;49.452;8.502;2023-07-31T09:17:15;23.30;99.90
12049;DHT22;6085;49.452;8.502;2023-07-31T09:21:18;23.40;99.90
12049;DHT22;6085;49.452;8.502;2023-07-31T09:25:21;24.20;99.90
12049;DHT22;6085;49.452;8.502;2023-07-31T09:29:24;25.80;99.90
12049;DHT22;6085;49.452;8.502;2023-07-31T09:33:28;26.60;99.90
12049;DHT22;6085;49.452;8.502;2023-07-31T09:37:31;26.50;99.90
12049;DHT22;6085;49.452;8.502;2023-07-31T09:41:36;27.60;99.90
12049;DHT22;6085;49.452;8.502;2023-07-31T09:45:40;29.80;99.60
12049;DHT22;6085;49.452;8.502;2023-07-31T09:49:47;29.20;99.10
12049;DHT22;6085;49.452;8.502;2023-07-31T09:53:50;29.40;98.30
12049;DHT22;6085;49.452;8.502;2023-07-31T09:57:52;29.00;98.20
12049;DHT22;6085;49.452;8.502;2023-07-31T10:01:56;27.50;99.80
12049;DHT22;6085;49.452;8.502;2023-07-31T10:06:00;25.80;99.90
12049;DHT22;6085;49.452;8.502;2023-07-31T10:10:04;25.20;99.90
12049;DHT22;6085;49.452;8.502;2023-07-31T10:14:08;25.80;99.90
12049;DHT22;6085;49.452;8.502;2023-07-31T10:18:10;25.30;99.90
12049;DHT22;6085;49.452;8.502;2023-07-31T10:22:14;24.50;99.90
12049;DHT22;6085;49.452;8.502;2023-07-31T10:26:17;24.40;99.90
12049;DHT22;6085;49.452;8.502;2023-07-31T10:30:23;25.10;99.90
12049;DHT22;6085;49.452;8.502;2023-07-31T10:34:27;25.20;99.90
12049;DHT22;6085;49.452;8.502;2023-07-31T10:38:30;25.60;99.90
12049;DHT22;6085;49.452;8.502;2023-07-31T10:42:33;25.50;99.90
12049;DHT22;6085;49.452;8.502;2023-07-31T10:46:36;25.00;99.90
12049;DHT22;6085;49.452;8.502;2023-07-31T10:50:47;24.40;99.90
12049;DHT22;6085;49.452;8.502;2023-07-31T10:55:14;24.30;99.90
12049;DHT22;6085;49.452;8.502;2023-07-31T10:59:16;24.20;99.90
12049;DHT22;6085;49.452;8.502;2023-07-31T11:03:25;24.30;99.90
12049;DHT22;6085;49.452;8.502;2023-07-31T11:07:46;24.60;99.90
12049;DHT22;6085;49.452;8.502;2023-07-31T11:11:50;24.30;99.90
12049;DHT22;6085;49.452;8.502;2023-07-31T11:15:52;24.20;99.90
12049;DHT22;6085;49.452;8.502;2023-07-31T11:19:54;24.00;99.90
12049;DHT22;6085;49.452;8.502;2023-07-31T11:23:57;24.10;99.90
12049;DHT22;6085;49.452;8.502;2023-07-31T11:28:04;24.30;99.90
12049;DHT22;6085;49.452;8.502;2023-07-31T11:32:16;24.00;99.90
12049;DHT22;6085;49.452;8.502;2023-07-31T11:36:20;24.20;99.90
12049;DHT22;6085;49.452;8.502;2023-07-31T11:40:22;24.10;99.90
12049;DHT22;6085;49.452;8.502;2023-07-31T11:44:39;23.70;99.90
12049;DHT22;6085;49.452;8.502;2023-07-31T11:48:44;23.60;99.90
12049;DHT22;6085;49.452;8.502;2023-07-31T11:52:46;23.80;99.90
12049;DHT22;6085;49.452;8.502;2023-07-31T11:56:50;23.80;99.90
12049;DHT22;6085;49.452;8.502;2023-07-31T12:00:53;23.70;99.90
12049;DHT22;6085;49.452;8.502;2023-07-31T12:04:55;23.70;99.90
12049;DHT22;6085;49.452;8.502;2023-07-31T12:09:01;23.70;99.90
12049;DHT22;6085;49.452;8.502;2023-07-31T12:13:04;23.60;99.90
12049;DHT22;6085;49.452;8.502;2023-07-31T12:17:08;23.40;99.90
12049;DHT22;6085;49.452;8.502;2023-07-31T12:21:10;23.30;99.90
12049;DHT22;6085;49.452;8.502;2023-07-31T12:25:15;23.40;99.90
12049;DHT22;6085;49.452;8.502;2023-07-31T12:29:17;23.30;99.90
12049;DHT22;6085;49.452;8.502;2023-07-31T12:33:20;23.30;99.90
12049;DHT22;6085;49.452;8.502;2023-07-31T12:37:23;23.40;99.90
12049;DHT22;6085;49.452;8.502;2023-07-31T12:41:24;23.50;99.90
12049;DHT22;6085;49.452;8.502;2023-07-31T12:45:28;23.40;99.90
12049;DHT22;6085;49.452;8.502;2023-07-31T12:49:31;23.30;99.90
12049;DHT22;6085;49.452;8.502;2023-07-31T12:53:33;23.40;99.90
12049;DHT22;6085;49.452;8.502;2023-07-31T12:57:35;23.30;99.90
12049;DHT22;6085;49.452;8.502;2023-07-31T13:01:37;23.30;99.90
12049;DHT22;6085;49.452;8.502;2023-07-31T13:05:40;23.80;99.90
12049;DHT22;6085;49.452;8.502;2023-07-31T13:09:42;24.50;99.90
12049;DHT22;6085;49.452;8.502;2023-07-31T13:13:46;24.50;99.90
12049;DHT22;6085;49.452;8.502;2023-07-31T13:17:48;24.30;99.90
12049;DHT22;6085;49.452;8.502;2023-07-31T13:21:52;24.20;99.90
12049;DHT22;6085;49.452;8.502;2023-07-31T13:25:54;24.00;99.90
12049;DHT22;6085;49.452;8.502;2023-07-31T13:29:56;24.00;99.90
12049;DHT22;6085;49.452;8.502;2023-07-31T13:33:58;24.00;99.90
12049;DHT22;6085;49.452;8.502;2023-07-31T13:38:01;23.80;99.90
12049;DHT22;6085;49.452;8.502;2023-07-31T13:42:04;23.80;99.90
12049;DHT22;6085;49.452;8.502;2023-07-31T13:46:07;23.80;99.90
12049;DHT22;6085;49.452;8.502;2023-07-31T13:50:11;23.80;99.90
12049;DHT22;6085;49.452;8.502;2023-07-31T13:54:14;23.70;99.90
12049;DHT22;6085;49.452;8.502;2023-07-31T13:58:17;23.60;99.90
12049;DHT22;6085;49.452;8.502;2023-07-31T14:02:19;23.40;99.90
12049;DHT22;6085;49.452;8.502;2023-07-31T14:06:21;23.30;99.90
12049;DHT22;6085;49.452;8.502;2023-07-31T14:10:25;23.20;99.90
12049;DHT22;6085;49.452;8.502;2023-07-31T14:14:27;23.30;99.90
12049;DHT22;6085;49.452;8.502;2023-07-31T14:18:29;23.40;99.90
12049;DHT22;6085;49.452;8.502;2023-07-31T14:22:31;23.40;99.90
12049;DHT22;6085;49.452;8.502;2023-07-31T14:26:35;23.20;99.90
12049;DHT22;6085;49.452;8.502;2023-07-31T14:30:37;23.20;99.90
12049;DHT22;6085;49.452;8.502;2023-07-31T14:34:40;23.30;99.90
12049;DHT22;6085;49.452;8.502;2023-07-31T14:38:42;23.50;99.90
12049;DHT22;6085;49.452;8.502;2023-07-31T14:42:45;23.80;99.90
12049;DHT22;6085;49.452;8.502;2023-07-31T14:46:47;23.90;99.90
12049;DHT22;6085;49.452;8.502;2023-07-31T14:50:49;23.90;99.90
12049;DHT22;6085;49.452;8.502;2023-07-31T14:54:51;23.80;99.90
12049;DHT22;6085;49.452;8.502;2023-07-31T14:58:55;23.80;99.90
12049;DHT22;6085;49.452;8.502;2023-07-31T15:03:00;24.20;99.90
12049;DHT22;6085;49.452;8.502;2023-07-31T15:07:02;24.50;99.90
12049;DHT22;6085;49.452;8.502;2023-07-31T15:11:05;24.70;99.90
12049;DHT22;6085;49.452;8.502;2023-07-31T15:15:08;24.70;99.90
12049;DHT22;6085;49.452;8.502;2023-07-31T15:19:10;24.50;99.90
12049;DHT22;6085;49.452;8.502;2023-07-31T15:23:13;24.40;99.90
12049;DHT22;6085;49.452;8.502;2023-07-31T15:27:15;24.10;99.90
12049;DHT22;6085;49.452;8.502;2023-07-31T15:31:18;23.90;99.90
12049;DHT22;6085;49.452;8.502;2023-07-31T15:35:20;23.90;99.90
12049;DHT22;6085;49.452;8.502;2023-07-31T15:39:22;23.90;99.90
12049;DHT22;6085;49.452;8.502;2023-07-31T15:43:24;23.80;99.90
12049;DHT22;6085;49.452;8.502;2023-07-31T15:47:28;23.80;99.90
12049;DHT22;6085;49.452;8.502;2023-07-31T15:51:30;23.80;99.90
12049;DHT22;6085;49.452;8.502;2023-07-31T15:55:33;23.70;99.90
12049;DHT22;6085;49.452;8.502;2023-07-31T15:59:35;23.50;99.90
12049;DHT22;6085;49.452;8.502;2023-07-31T16:03:38;23.50;99.90
12049;DHT22;6085;49.452;8.502;2023-07-31T16:07:40;23.50;99.90
12049;DHT22;6085;49.452;8.502;2023-07-31T16:11:43;23.40;99.90
12049;DHT22;6085;49.452;8.502;2023-07-31T16:15:47;23.30;99.90
12049;DHT22;6085;49.452;8.502;2023-07-31T16:19:50;23.00;99.90
12049;DHT22;6085;49.452;8.502;2023-07-31T16:23:52;22.70;99.90
12049;DHT22;6085;49.452;8.502;2023-07-31T16:27:54;22.70;99.90
12049;DHT22;6085;49.452;8.502;2023-07-31T16:31:56;22.70;99.90
12049;DHT22;6085;49.452;8.502;2023-07-31T16:35:59;22.60;99.90
12049;DHT22;6085;49.452;8.502;2023-07-31T16:40:01;22.60;99.90
12049;DHT22;6085;49.452;8.502;2023-07-31T16:44:03;22.40;99.90
12049;DHT22;6085;49.452;8.502;2023-07-31T16:48:05;22.30;99.90
12049;DHT22;6085;49.452;8.502;2023-07-31T16:52:09;22.20;99.90
12049;DHT22;6085;49.452;8.502;2023-07-31T16:56:11;22.10;99.90
12049;DHT22;6085;49.452;8.502;2023-07-31T17:00:13;21.70;99.90
12049;DHT22;6085;49.452;8.502;2023-07-31T17:04:16;21.10;99.90
12049;DHT22;6085;49.452;8.502;2023-07-31T17:08:19;20.50;99.90
12049;DHT22;6085;49.452;8.502;2023-07-31T17:12:21;19.90;99.90
12049;DHT22;6085;49.452;8.502;2023-07-31T17:16:24;19.40;99.90
12049;DHT22;6085;49.452;8.502;2023-07-31T17:20:30;19.10;99.90
12049;DHT22;6085;49.452;8.502;2023-07-31T17:24:35;18.90;99.90
12049;DHT22;6085;49.452;8.502;2023-07-31T17:28:36;18.80;99.90
12049;DHT22;6085;49.452;8.502;2023-07-31T17:32:38;18.60;99.90
12049;DHT22;6085;49.452;8.502;2023-07-31T17:36:40;18.50;99.90
12049;DHT22;6085;49.452;8.502;2023-07-31T17:40:43;18.30;99.90
12049;DHT22;6085;49.452;8.502;2023-07-31T17:44:45;18.20;99.90
12049;DHT22;6085;49.452;8.502;2023-07-31T17:48:47;18.00;99.90
12049;DHT22;6085;49.452;8.502;2023-07-31T17:52:49;18.10;99.90
12049;DHT22;6085;49.452;8.502;2023-07-31T17:56:53;18.00;99.90
12049;DHT22;6085;49.452;8.502;2023-07-31T18:00:55;17.90;99.90
12049;DHT22;6085;49.452;8.502;2023-07-31T18:04:57;18.00;99.90
12049;DHT22;6085;49.452;8.502;2023-07-31T18:08:58;18.00;99.90
12049;DHT22;6085;49.452;8.502;2023-07-31T18:13:02;18.00;99.90
12049;DHT22;6085;49.452;8.502;2023-07-31T18:17:04;18.00;99.90
12049;DHT22;6085;49.452;8.502;2023-07-31T18:21:06;18.00;99.90
12049;DHT22;6085;49.452;8.502;2023-07-31T18:25:08;18.00;99.90
12049;DHT22;6085;49.452;8.502;2023-07-31T18:29:11;17.90;99.90
12049;DHT22;6085;49.452;8.502;2023-07-31T18:33:13;17.90;99.90
12049;DHT22;6085;49.452;8.502;2023-07-31T18:37:15;17.80;99.90
12049;DHT22;6085;49.452;8.502;2023-07-31T18:41:17;17.80;99.90
12049;DHT22;6085;49.452;8.502;2023-07-31T18:45:20;17.80;99.90
12049;DHT22;6085;49.452;8.502;2023-07-31T18:49:22;17.80;99.90
12049;DHT22;6085;49.452;8.502;2023-07-31T18:53:24;17.80;99.90
12049;DHT22;6085;49.452;8.502;2023-07-31T18:57:27;17.80;99.90
12049;DHT22;6085;49.452;8.502;2023-07-31T19:01:30;17.80;99.90
12049;DHT22;6085;49.452;8.502;2023-07-31T19:05:32;17.80;99.90
12049;DHT22;6085;49.452;8.502;2023-07-31T19:09:34;17.70;99.90
12049;DHT22;6085;49.452;8.502;2023-07-31T19:13:36;17.70;99.90
12049;DHT22;6085;49.452;8.502;2023-07-31T19:17:40;17.60;99.90
12049;DHT22;6085;49.452;8.502;2023-07-31T19:21:47;17.60;99.90
12049;DHT22;6085;49.452;8.502;2023-07-31T19:25:49;17.70;99.90
12049;DHT22;6085;49.452;8.502;2023-07-31T19:29:51;17.70;99.90
12049;DHT22;6085;49.452;8.502;2023-07-31T19:33:55;17.70;99.90
12049;DHT22;6085;49.452;8.502;2023-07-31T19:37:57;17.70;99.90
12049;DHT22;6085;49.452;8.502;2023-07-31T19:41:59;17.70;99.90
12049;DHT22;6085;49.452;8.502;2023-07-31T19:46:01;17.70;99.90
12049;DHT22;6085;49.452;8.502;2023-07-31T19:50:05;17.70;99.90
12049;DHT22;6085;49.452;8.502;2023-07-31T19:54:07;17.70;99.90
12049;DHT22;6085;49.452;8.502;2023-07-31T19:58:09;17.60;99.90
12049;DHT22;6085;49.452;8.502;2023-07-31T20:02:11;17.50;99.90
12049;DHT22;6085;49.452;8.502;2023-07-31T20:06:15;17.40;99.90
12049;DHT22;6085;49.452;8.502;2023-07-31T20:10:17;17.30;99.90
12049;DHT22;6085;49.452;8.502;2023-07-31T20:14:19;17.20;99.90
12049;DHT22;6085;49.452;8.502;2023-07-31T20:18:21;17.10;99.90
12049;DHT22;6085;49.452;8.502;2023-07-31T20:22:24;17.10;99.90
12049;DHT22;6085;49.452;8.502;2023-07-31T20:26:26;17.10;99.90
12049;DHT22;6085;49.452;8.502;2023-07-31T20:30:27;17.10;99.90
12049;DHT22;6085;49.452;8.502;2023-07-31T20:34:29;17.10;99.90
12049;DHT22;6085;49.452;8.502;2023-07-31T20:38:33;17.10;99.90
12049;DHT22;6085;49.452;8.502;2023-07-31T20:42:35;17.00;99.90
12049;DHT22;6085;49.452;8.502;2023-07-31T20:46:37;17.10;99.90
12049;DHT22;6085;49.452;8.502;2023-07-31T20:50:40;17.10;99.90
12049;DHT22;6085;49.452;8.502;2023-07-31T20:54:43;17.10;99.90
12049;DHT22;6085;49.452;8.502;2023-07-31T20:58:46;17.10;99.90
12049;DHT22;6085;49.452;8.502;2023-07-31T21:02:49;17.20;99.90
12049;DHT22;6085;49.452;8.502;2023-07-31T21:06:51;17.10;99.90
12049;DHT22;6085;49.452;8.502;2023-07-31T21:10:55;17.20;99.90
12049;DHT22;6085;49.452;8.502;2023-07-31T21:14:57;17.10;99.90
12049;DHT22;6085;49.452;8.502;2023-07-31T21:18:58;17.20;99.90
12049;DHT22;6085;49.452;8.502;2023-07-31T21:23:00;17.20;99.90
12049;DHT22;6085;49.452;8.502;2023-07-31T21:27:08;17.20;99.90
12049;DHT22;6085;49.452;8.502;2023-07-31T21:31:10;17.20;99.90
12049;DHT22;6085;49.452;8.502;2023-07-31T21:35:12;17.20;99.90
12049;DHT22;6085;49.452;8.502;2023-07-31T21:39:14;17.20;99.90
12049;DHT22;6085;49.452;8.502;2023-07-31T21:43:17;17.20;99.90
12049;DHT22;6085;49.452;8.502;2023-07-31T21:47:19;17.20;99.90
12049;DHT22;6085;49.452;8.502;2023-07-31T21:51:21;17.20;99.90
12049;DHT22;6085;49.452;8.502;2023-07-31T21:55:23;17.20;99.90
12049;DHT22;6085;49.452;8.502;2023-07-31T21:59:26;17.20;99.90
12049;DHT22;6085;49.452;8.502;2023-07-31T22:03:28;17.20;99.90
12049;DHT22;6085;49.452;8.502;2023-07-31T22:07:30;17.20;99.90
12049;DHT22;6085;49.452;8.502;2023-07-31T22:11:32;17.20;99.90
12049;DHT22;6085;49.452;8.502;2023-07-31T22:15:36;17.20;99.90
12049;DHT22;6085;49.452;8.502;2023-07-31T22:19:38;17.20;99.90
12049;DHT22;6085;49.452;8.502;2023-07-31T22:23:39;17.20;99.90
12049;DHT22;6085;49.452;8.502;2023-07-31T22:27:41;17.10;99.90
12049;DHT22;6085;49.452;8.502;2023-07-31T22:31:45;17.10;99.90
12049;DHT22;6085;49.452;8.502;2023-07-31T22:35:48;17.10;99.90
12049;DHT22;6085;49.452;8.502;2023-07-31T22:39:51;17.10;99.90
12049;DHT22;6085;49.452;8.502;2023-07-31T22:43:53;17.00;99.90
12049;DHT22;6085;49.452;8.502;2023-07-31T22:47:56;17.00;99.90
12049;DHT22;6085;49.452;8.502;2023-07-31T22:51:58;17.00;99.90
12049;DHT22;6085;49.452;8.502;2023-07-31T22:56:02;16.90;99.90
12049;DHT22;6085;49.452;8.502;2023-07-31T23:00:06;17.00;99.90
12049;DHT22;6085;49.452;8.502;2023-07-31T23:04:10;16.90;99.90
12049;DHT22;6085;49.452;8.502;2023-07-31T23:08:12;16.90;99.90
12049;DHT22;6085;49.452;8.502;2023-07-31T23:12:14;16.90;99.90
12049;DHT22;6085;49.452;8.502;2023-07-31T23:16:16;16.90;99.90
12049;DHT22;6085;49.452;8.502;2023-07-31T23:20:19;16.90;99.90
12049;DHT22;6085;49.452;8.502;2023-07-31T23:24:21;16.90;99.90
12049;DHT22;6085;49.452;8.502;2023-07-31T23:28:23;16.90;99.90
12049;DHT22;6085;49.452;8.502;2023-07-31T23:32:25;16.90;99.90
12049;DHT22;6085;49.452;8.502;2023-07-31T23:36:28;16.90;99.90
12049;DHT22;6085;49.452;8.502;2023-07-31T23:40:31;16.90;99.90
12049;DHT22;6085;49.452;8.502;2023-07-31T23:44:33;16.90;99.90
12049;DHT22;6085;49.452;8.502;2023-07-31T23:48:35;16.80;99.90
12049;DHT22;6085;49.452;8.502;2023-07-31T23:52:38;16.80;99.90
12049;DHT22;6085;49.452;8.502;2023-07-31T23:56:41;16.90;99.90
